Time,TemperatureF,DewpointF,PressureIn,WindDirection,WindDirectionDegrees,WindSpeedMPH,WindSpeedGustMPH,Humidity,HourlyPrecipIn,Conditions,Clouds,dailyrainin,SoftwareType,DateUTC
2013-02-18 00:00:00,44.1,11.4,29.92,SSW,201,0.0,0.0,26,0.00,,---,0.00,VWS V14.01,2013-02-18 07:00:00,
2013-02-18 00:05:00,43.6,11.8,29.92,South,184,0.0,2.0,27,0.00,,---,0.00,VWS V14.01,2013-02-18 07:05:00,
2013-02-18 00:10:00,43.5,12.6,29.93,South,190,0.0,0.0,28,0.00,,---,0.00,VWS V14.01,2013-02-18 07:10:00,
2013-02-18 00:15:00,43.2,12.3,29.92,SSW,192,0.0,0.0,28,0.00,,---,0.00,VWS V14.01,2013-02-18 07:15:00,
2013-02-18 00:20:00,43.0,12.1,29.92,SSW,192,0.0,0.0,28,0.00,,---,0.00,VWS V14.01,2013-02-18 07:20:00,
2013-02-18 00:25:00,43.6,12.7,29.92,South,175,2.0,5.0,28,0.00,,---,0.00,VWS V14.01,2013-02-18 07:25:00,
2013-02-18 00:30:00,44.4,12.5,29.92,South,182,2.0,3.0,27,0.00,,---,0.00,VWS V14.01,2013-02-18 07:30:00,
2013-02-18 00:35:00,44.5,12.6,29.93,South,173,1.0,3.0,27,0.00,,---,0.00,VWS V14.01,2013-02-18 07:35:00,
2013-02-18 00:40:00,44.8,12.9,29.93,SSE,166,3.0,5.0,27,0.00,,---,0.00,VWS V14.01,2013-02-18 07:40:00,
2013-02-18 00:45:00,45.0,13.1,29.93,South,178,3.0,3.0,27,0.00,,---,0.00,VWS V14.01,2013-02-18 07:45:00,
2013-02-18 00:50:00,44.8,12.9,29.94,South,176,2.0,5.0,27,0.00,,---,0.00,VWS V14.01,2013-02-18 07:50:00,
2013-02-18 00:55:00,44.8,12.9,29.94,South,173,3.0,6.0,27,0.00,,---,0.00,VWS V14.01,2013-02-18 07:55:00,
2013-02-18 01:00:00,44.8,12.9,29.93,SSE,166,4.0,4.0,27,0.00,,---,0.00,VWS V14.01,2013-02-18 08:00:00,
2013-02-18 01:05:00,44.8,12.9,29.93,South,180,0.0,7.0,27,0.00,,---,0.00,VWS V14.01,2013-02-18 08:05:00,
2013-02-18 01:10:00,44.9,12.1,29.93,SW,225,0.0,0.0,26,0.00,,---,0.00,VWS V14.01,2013-02-18 08:10:00,
2013-02-18 01:15:00,45.9,13.0,29.94,SSW,213,10.0,10.0,26,0.00,,---,0.00,VWS V14.01,2013-02-18 08:15:00,
2013-02-18 01:20:00,47.7,13.6,29.94,SSE,165,3.0,6.0,25,0.00,,---,0.00,VWS V14.01,2013-02-18 08:20:00,
2013-02-18 01:25:00,47.1,13.1,29.93,SSE,166,2.0,9.0,25,0.00,,---,0.00,VWS V14.01,2013-02-18 08:25:00,
2013-02-18 01:30:00,47.1,13.1,29.94,SSW,200,5.0,7.0,25,0.00,,---,0.00,VWS V14.01,2013-02-18 08:30:00,
2013-02-18 01:35:00,47.6,13.5,29.94,South,175,3.0,4.0,25,0.00,,---,0.00,VWS V14.01,2013-02-18 08:35:00,
2013-02-18 01:40:00,47.1,13.1,29.94,SSW,196,0.0,1.0,25,0.00,,---,0.00,VWS V14.01,2013-02-18 08:40:00,
2013-02-18 01:45:00,47.2,13.2,29.94,WSW,241,1.0,4.0,25,0.00,,---,0.00,VWS V14.01,2013-02-18 08:45:00,
2013-02-18 01:50:00,47.4,13.4,29.94,SSW,213,0.0,0.0,25,0.00,,---,0.00,VWS V14.01,2013-02-18 08:50:00,
2013-02-18 01:55:00,46.7,12.8,29.94,WSW,257,0.0,0.0,25,0.00,,---,0.00,VWS V14.01,2013-02-18 08:55:00,
2013-02-18 02:00:00,46.0,12.2,29.94,West,259,0.0,0.0,25,0.00,,---,0.00,VWS V14.01,2013-02-18 09:00:00,
2013-02-18 02:05:00,45.4,12.5,29.94,NW,304,0.0,0.0,26,0.00,,---,0.00,VWS V14.01,2013-02-18 09:05:00,
2013-02-18 02:10:00,45.4,12.5,29.94,NW,308,0.0,1.0,26,0.00,,---,0.00,VWS V14.01,2013-02-18 09:10:00,
2013-02-18 02:15:00,45.6,12.7,29.94,NW,308,0.0,0.0,26,0.00,,---,0.00,VWS V14.01,2013-02-18 09:15:00,
2013-02-18 02:20:00,45.2,12.4,29.94,NNW,338,0.0,1.0,26,0.00,,---,0.00,VWS V14.01,2013-02-18 09:20:00,
2013-02-18 02:25:00,44.7,11.9,29.94,North,360,0.0,2.0,26,0.00,,---,0.00,VWS V14.01,2013-02-18 09:25:00,
2013-02-18 02:30:00,43.9,12.1,29.95,ENE,61,0.0,2.0,27,0.00,,---,0.00,VWS V14.01,2013-02-18 09:30:00,
2013-02-18 02:35:00,41.9,12.0,29.94,ENE,61,0.0,0.0,29,0.00,,---,0.00,VWS V14.01,2013-02-18 09:35:00,
2013-02-18 02:40:00,40.1,11.2,29.95,ENE,61,0.0,0.0,30,0.00,,---,0.00,VWS V14.01,2013-02-18 09:40:00,
2013-02-18 02:45:00,38.7,10.7,29.95,ENE,61,0.0,0.0,31,0.00,,---,0.00,VWS V14.01,2013-02-18 09:45:00,
2013-02-18 02:50:00,37.6,11.1,29.95,ENE,63,0.0,0.0,33,0.00,,---,0.00,VWS V14.01,2013-02-18 09:50:00,
2013-02-18 02:55:00,36.6,11.6,29.95,East,99,0.0,0.0,35,0.00,,---,0.00,VWS V14.01,2013-02-18 09:55:00,
2013-02-18 03:00:00,36.4,12.0,29.95,East,101,0.0,3.0,36,0.00,,---,0.00,VWS V14.01,2013-02-18 10:00:00,
2013-02-18 03:05:00,36.7,12.3,29.95,ESE,103,0.0,2.0,36,0.00,,---,0.00,VWS V14.01,2013-02-18 10:05:00,
2013-02-18 03:10:00,36.6,12.8,29.96,East,91,2.0,3.0,37,0.00,,---,0.00,VWS V14.01,2013-02-18 10:10:00,
2013-02-18 03:15:00,35.9,12.8,29.95,East,87,2.0,2.0,38,0.00,,---,0.00,VWS V14.01,2013-02-18 10:15:00,
2013-02-18 03:20:00,35.5,12.4,29.95,East,96,2.0,3.0,38,0.00,,---,0.00,VWS V14.01,2013-02-18 10:20:00,
2013-02-18 03:25:00,35.7,12.6,29.95,East,93,0.0,1.0,38,0.00,,---,0.00,VWS V14.01,2013-02-18 10:25:00,
2013-02-18 03:30:00,35.6,12.5,29.95,East,94,1.0,2.0,38,0.00,,---,0.00,VWS V14.01,2013-02-18 10:30:00,
2013-02-18 03:35:00,35.4,12.3,29.95,East,83,2.0,5.0,38,0.00,,---,0.00,VWS V14.01,2013-02-18 10:35:00,
2013-02-18 03:40:00,35.0,12.6,29.95,East,83,1.0,3.0,39,0.00,,---,0.00,VWS V14.01,2013-02-18 10:40:00,
2013-02-18 03:45:00,34.6,12.2,29.95,East,89,1.0,3.0,39,0.00,,---,0.00,VWS V14.01,2013-02-18 10:45:00,
2013-02-18 03:50:00,34.4,12.6,29.95,East,88,4.0,5.0,40,0.00,,---,0.00,VWS V14.01,2013-02-18 10:50:00,
2013-02-18 03:55:00,34.4,12.6,29.95,East,92,2.0,3.0,40,0.00,,---,0.00,VWS V14.01,2013-02-18 10:55:00,
2013-02-18 04:00:00,34.4,12.0,29.95,East,85,5.0,6.0,39,0.00,,---,0.00,VWS V14.01,2013-02-18 11:00:00,
2013-02-18 04:05:00,35.1,12.6,29.96,East,97,0.0,4.0,39,0.00,,---,0.00,VWS V14.01,2013-02-18 11:05:00,
2013-02-18 04:10:00,35.3,12.8,29.95,East,98,1.0,4.0,39,0.00,,---,0.00,VWS V14.01,2013-02-18 11:10:00,
2013-02-18 04:15:00,35.4,12.9,29.95,East,98,0.0,3.0,39,0.00,,---,0.00,VWS V14.01,2013-02-18 11:15:00,
2013-02-18 04:20:00,35.1,12.6,29.96,East,98,0.0,0.0,39,0.00,,---,0.00,VWS V14.01,2013-02-18 11:20:00,
2013-02-18 04:25:00,34.4,12.6,29.96,East,98,0.0,3.0,40,0.00,,---,0.00,VWS V14.01,2013-02-18 11:25:00,
2013-02-18 04:30:00,34.4,13.1,29.96,East,98,0.0,2.0,41,0.00,,---,0.00,VWS V14.01,2013-02-18 11:30:00,
2013-02-18 04:35:00,33.9,12.7,29.96,East,98,0.0,0.0,41,0.00,,---,0.00,VWS V14.01,2013-02-18 11:35:00,
2013-02-18 04:40:00,33.6,12.4,29.96,East,98,3.0,4.0,41,0.00,,---,0.00,VWS V14.01,2013-02-18 11:40:00,
2013-02-18 04:45:00,33.5,12.9,29.96,East,98,0.0,2.0,42,0.00,,---,0.00,VWS V14.01,2013-02-18 11:45:00,
2013-02-18 04:50:00,33.2,12.6,29.96,East,98,0.0,0.0,42,0.00,,---,0.00,VWS V14.01,2013-02-18 11:50:00,
2013-02-18 04:55:00,32.5,12.5,29.96,East,98,0.0,3.0,43,0.00,,---,0.00,VWS V14.01,2013-02-18 11:55:00,
2013-02-18 05:00:00,32.1,12.7,29.97,East,98,2.0,4.0,44,0.00,,---,0.00,VWS V14.01,2013-02-18 12:00:00,
2013-02-18 05:05:00,31.7,12.3,29.97,East,98,0.0,2.0,44,0.00,,---,0.00,VWS V14.01,2013-02-18 12:05:00,
2013-02-18 05:10:00,31.7,12.8,29.97,East,98,2.0,3.0,45,0.00,,---,0.00,VWS V14.01,2013-02-18 12:10:00,
2013-02-18 05:15:00,31.7,12.8,29.97,East,97,2.0,4.0,45,0.00,,---,0.00,VWS V14.01,2013-02-18 12:15:00,
2013-02-18 05:20:00,31.6,13.2,29.97,East,94,1.0,5.0,46,0.00,,---,0.00,VWS V14.01,2013-02-18 12:20:00,
2013-02-18 05:25:00,31.4,13.0,29.97,East,94,0.0,0.0,46,0.00,,---,0.00,VWS V14.01,2013-02-18 12:25:00,
2013-02-18 05:30:00,31.2,13.3,29.97,East,98,4.0,4.0,47,0.00,,---,0.00,VWS V14.01,2013-02-18 12:30:00,
2013-02-18 05:35:00,31.4,13.5,29.98,East,98,4.0,5.0,47,0.00,,---,0.00,VWS V14.01,2013-02-18 12:35:00,
2013-02-18 05:40:00,31.8,13.4,29.98,East,96,3.0,4.0,46,0.00,,---,0.00,VWS V14.01,2013-02-18 12:40:00,
2013-02-18 05:45:00,31.9,13.5,29.98,East,98,3.0,4.0,46,0.00,,---,0.00,VWS V14.01,2013-02-18 12:45:00,
2013-02-18 05:50:00,31.7,13.3,29.98,East,96,3.0,4.0,46,0.00,,---,0.00,VWS V14.01,2013-02-18 12:50:00,
2013-02-18 05:55:00,31.2,13.3,29.98,East,80,3.0,6.0,47,0.00,,---,0.00,VWS V14.01,2013-02-18 12:55:00,
2013-02-18 06:00:00,30.6,13.3,29.98,East,80,3.0,4.0,48,0.00,,---,0.00,VWS V14.01,2013-02-18 13:00:00,
2013-02-18 06:05:00,30.5,13.6,29.98,East,82,2.0,4.0,49,0.00,,---,0.00,VWS V14.01,2013-02-18 13:05:00,
2013-02-18 06:10:00,30.4,13.5,29.99,East,100,2.0,4.0,49,0.00,,---,0.00,VWS V14.01,2013-02-18 13:10:00,
2013-02-18 06:15:00,30.7,13.4,29.99,ESE,108,0.0,2.0,48,0.00,,---,0.00,VWS V14.01,2013-02-18 13:15:00,
2013-02-18 06:20:00,31.0,13.6,29.99,ESE,109,0.0,2.0,48,0.00,,---,0.00,VWS V14.01,2013-02-18 13:20:00,
2013-02-18 06:25:00,31.0,13.6,29.99,ESE,109,2.0,3.0,48,0.00,,---,0.00,VWS V14.01,2013-02-18 13:25:00,
2013-02-18 06:30:00,30.5,13.6,29.99,East,92,6.0,6.0,49,0.00,,---,0.00,VWS V14.01,2013-02-18 13:30:00,
2013-02-18 06:35:00,30.7,13.4,30.00,East,98,4.0,6.0,48,0.00,,---,0.00,VWS V14.01,2013-02-18 13:35:00,
2013-02-18 06:40:00,31.5,13.6,29.99,East,101,3.0,5.0,47,0.00,,---,0.00,VWS V14.01,2013-02-18 13:40:00,
2013-02-18 06:45:00,32.3,13.9,30.00,East,101,4.0,5.0,46,0.00,,---,0.00,VWS V14.01,2013-02-18 13:45:00,
2013-02-18 06:50:00,32.8,13.8,29.99,East,96,4.0,4.0,45,0.00,,---,0.00,VWS V14.01,2013-02-18 13:50:00,
2013-02-18 06:55:00,33.0,13.5,30.00,East,96,3.0,4.0,44,0.00,,---,0.00,VWS V14.01,2013-02-18 13:55:00,
2013-02-18 07:00:00,33.0,13.5,30.00,East,96,3.0,3.0,44,0.00,,---,0.00,VWS V14.01,2013-02-18 14:00:00,
2013-02-18 07:05:00,33.2,13.1,30.00,ESE,103,2.0,3.0,43,0.00,,---,0.00,VWS V14.01,2013-02-18 14:05:00,
2013-02-18 07:10:00,34.2,13.0,30.00,ESE,110,0.0,3.0,41,0.00,,---,0.00,VWS V14.01,2013-02-18 14:10:00,
2013-02-18 07:15:00,35.0,13.1,30.00,ESE,113,0.0,3.0,40,0.00,,---,0.00,VWS V14.01,2013-02-18 14:15:00,
2013-02-18 07:20:00,35.6,13.1,30.00,ESE,113,0.0,2.0,39,0.00,,---,0.00,VWS V14.01,2013-02-18 14:20:00,
2013-02-18 07:25:00,36.2,13.6,30.00,ESE,113,0.0,3.0,39,0.00,,---,0.00,VWS V14.01,2013-02-18 14:25:00,
2013-02-18 07:30:00,37.0,13.8,30.01,ESE,114,0.0,0.0,38,0.00,,---,0.00,VWS V14.01,2013-02-18 14:30:00,
2013-02-18 07:35:00,38.0,14.1,30.01,ESE,118,0.0,0.0,37,0.00,,---,0.00,VWS V14.01,2013-02-18 14:35:00,
2013-02-18 07:40:00,38.6,14.6,30.02,ESE,117,1.0,3.0,37,0.00,,---,0.00,VWS V14.01,2013-02-18 14:40:00,
2013-02-18 07:45:00,38.9,14.9,30.02,ESE,117,1.0,3.0,37,0.00,,---,0.00,VWS V14.01,2013-02-18 14:45:00,
2013-02-18 07:50:00,39.0,14.9,30.01,ESE,117,0.0,3.0,37,0.00,,---,0.00,VWS V14.01,2013-02-18 14:50:00,
2013-02-18 07:55:00,39.8,15.0,30.02,ESE,117,0.0,0.0,36,0.00,,---,0.00,VWS V14.01,2013-02-18 14:55:00,
2013-02-18 08:00:00,41.3,15.7,30.02,ESE,117,0.0,2.0,35,0.00,,---,0.00,VWS V14.01,2013-02-18 15:00:00,
2013-02-18 08:05:00,43.2,16.1,30.02,ESE,117,0.0,2.0,33,0.00,,---,0.00,VWS V14.01,2013-02-18 15:05:00,
2013-02-18 08:10:00,45.1,15.5,30.02,ESE,117,0.0,1.0,30,0.00,,---,0.00,VWS V14.01,2013-02-18 15:10:00,
2013-02-18 08:15:00,46.9,16.3,30.02,ESE,117,0.0,1.0,29,0.00,,---,0.00,VWS V14.01,2013-02-18 15:15:00,
2013-02-18 08:20:00,48.2,14.9,30.02,ESE,117,0.0,0.0,26,0.00,,---,0.00,VWS V14.01,2013-02-18 15:20:00,
2013-02-18 08:25:00,49.4,15.1,30.02,ESE,120,2.0,3.0,25,0.00,,---,0.00,VWS V14.01,2013-02-18 15:25:00,
2013-02-18 08:30:00,50.2,14.8,30.02,ESE,121,2.0,3.0,24,0.00,,---,0.00,VWS V14.01,2013-02-18 15:30:00,
2013-02-18 08:35:00,50.9,14.4,30.03,SE,140,3.0,4.0,23,0.00,,---,0.00,VWS V14.01,2013-02-18 15:35:00,
2013-02-18 08:40:00,51.4,15.8,30.03,SE,134,5.0,5.0,24,0.00,,---,0.00,VWS V14.01,2013-02-18 15:40:00,
2013-02-18 08:45:00,51.6,14.0,30.03,SSE,150,4.0,4.0,22,0.00,,---,0.00,VWS V14.01,2013-02-18 15:45:00,
2013-02-18 08:50:00,52.0,14.4,30.03,SE,138,2.0,5.0,22,0.00,,---,0.00,VWS V14.01,2013-02-18 15:50:00,
2013-02-18 08:55:00,52.6,14.9,30.03,South,182,0.0,3.0,22,0.00,,---,0.00,VWS V14.01,2013-02-18 15:55:00,
2013-02-18 09:00:00,52.9,15.1,30.03,SSE,165,0.0,3.0,22,0.00,,---,0.00,VWS V14.01,2013-02-18 16:00:00,
2013-02-18 09:05:00,53.1,14.2,30.03,South,180,2.0,3.0,21,0.00,,---,0.00,VWS V14.01,2013-02-18 16:05:00,
2013-02-18 09:10:00,53.3,14.4,30.03,SSE,153,3.0,5.0,21,0.00,,---,0.00,VWS V14.01,2013-02-18 16:10:00,
2013-02-18 09:15:00,53.4,14.5,30.03,SSE,148,1.0,3.0,21,0.00,,---,0.00,VWS V14.01,2013-02-18 16:15:00,
2013-02-18 09:20:00,54.0,15.0,30.03,SSE,153,0.0,6.0,21,0.00,,---,0.00,VWS V14.01,2013-02-18 16:20:00,
2013-02-18 09:25:00,54.4,14.2,30.03,SSE,159,1.0,5.0,20,0.00,,---,0.00,VWS V14.01,2013-02-18 16:25:00,
2013-02-18 09:30:00,54.7,14.4,30.03,SE,140,0.0,4.0,20,0.00,,---,0.00,VWS V14.01,2013-02-18 16:30:00,
2013-02-18 09:35:00,54.8,15.6,30.03,South,182,4.0,4.0,21,0.00,,---,0.00,VWS V14.01,2013-02-18 16:35:00,
2013-02-18 09:40:00,54.7,14.4,30.03,SSE,155,0.0,4.0,20,0.00,,---,0.00,VWS V14.01,2013-02-18 16:40:00,
2013-02-18 09:45:00,55.1,14.8,30.03,South,175,0.0,4.0,20,0.00,,---,0.00,VWS V14.01,2013-02-18 16:45:00,
2013-02-18 09:50:00,55.2,14.9,30.03,South,180,4.0,4.0,20,0.00,,---,0.00,VWS V14.01,2013-02-18 16:50:00,
2013-02-18 09:55:00,55.1,14.8,30.03,South,189,1.0,4.0,20,0.00,,---,0.00,VWS V14.01,2013-02-18 16:55:00,
2013-02-18 10:00:00,55.1,14.8,30.03,South,180,3.0,6.0,20,0.00,,---,0.00,VWS V14.01,2013-02-18 17:00:00,
2013-02-18 10:05:00,54.9,14.6,30.03,SSE,163,5.0,10.0,20,0.00,,---,0.00,VWS V14.01,2013-02-18 17:05:00,
2013-02-18 10:10:00,54.9,14.6,30.03,SSW,196,5.0,5.0,20,0.00,,---,0.00,VWS V14.01,2013-02-18 17:10:00,
2013-02-18 10:15:00,55.0,14.7,30.03,SSW,205,9.0,10.0,20,0.00,,---,0.00,VWS V14.01,2013-02-18 17:15:00,
2013-02-18 10:20:00,54.8,14.5,30.03,South,177,1.0,6.0,20,0.00,,---,0.00,VWS V14.01,2013-02-18 17:20:00,
2013-02-18 10:25:00,54.7,14.4,30.03,South,188,3.0,8.0,20,0.00,,---,0.00,VWS V14.01,2013-02-18 17:25:00,
2013-02-18 10:30:00,55.1,14.8,30.03,SSW,211,2.0,5.0,20,0.00,,---,0.00,VWS V14.01,2013-02-18 17:30:00,
2013-02-18 10:35:00,55.4,15.0,30.02,SSW,192,2.0,3.0,20,0.00,,---,0.00,VWS V14.01,2013-02-18 17:35:00,
2013-02-18 10:40:00,55.9,14.3,30.02,South,179,2.0,7.0,19,0.00,,---,0.00,VWS V14.01,2013-02-18 17:40:00,
2013-02-18 10:45:00,56.2,14.5,30.02,SSW,210,1.0,3.0,19,0.00,,---,0.00,VWS V14.01,2013-02-18 17:45:00,
2013-02-18 10:50:00,56.6,14.8,30.03,SSW,200,4.0,5.0,19,0.00,,---,0.00,VWS V14.01,2013-02-18 17:50:00,
2013-02-18 10:55:00,56.3,14.6,30.03,South,169,1.0,5.0,19,0.00,,---,0.00,VWS V14.01,2013-02-18 17:55:00,
2013-02-18 11:00:00,56.2,14.5,30.03,SW,234,5.0,6.0,19,0.00,,---,0.00,VWS V14.01,2013-02-18 18:00:00,
2013-02-18 11:05:00,56.1,14.4,30.03,SW,223,0.0,4.0,19,0.00,,---,0.00,VWS V14.01,2013-02-18 18:05:00,
2013-02-18 11:10:00,56.0,14.3,30.02,WSW,238,0.0,1.0,19,0.00,,---,0.00,VWS V14.01,2013-02-18 18:10:00,
2013-02-18 11:15:00,56.2,14.5,30.02,SW,223,2.0,4.0,19,0.00,,---,0.00,VWS V14.01,2013-02-18 18:15:00,
2013-02-18 11:20:00,56.9,15.1,30.02,SW,222,0.0,1.0,19,0.00,,---,0.00,VWS V14.01,2013-02-18 18:20:00,
2013-02-18 11:25:00,57.7,14.5,30.02,SSW,192,0.0,3.0,18,0.00,,---,0.00,VWS V14.01,2013-02-18 18:25:00,
2013-02-18 11:30:00,58.4,15.1,30.02,ESE,122,0.0,3.0,18,0.00,,---,0.00,VWS V14.01,2013-02-18 18:30:00,
2013-02-18 11:35:00,58.1,13.5,30.01,South,174,0.0,2.0,17,0.00,,---,0.00,VWS V14.01,2013-02-18 18:35:00,
2013-02-18 11:40:00,58.5,13.9,30.01,SSW,209,2.0,5.0,17,0.00,,---,0.00,VWS V14.01,2013-02-18 18:40:00,
2013-02-18 11:45:00,58.5,13.9,30.01,South,177,2.0,6.0,17,0.00,,---,0.00,VWS V14.01,2013-02-18 18:45:00,
2013-02-18 11:50:00,59.0,14.3,30.01,SW,220,2.0,4.0,17,0.00,,---,0.00,VWS V14.01,2013-02-18 18:50:00,
2013-02-18 11:55:00,58.5,12.5,30.01,West,269,0.0,6.0,16,0.00,,---,0.00,VWS V14.01,2013-02-18 18:55:00,
2013-02-18 12:00:00,59.0,14.3,30.01,West,271,0.0,3.0,17,0.00,,---,0.00,VWS V14.01,2013-02-18 19:00:00,
2013-02-18 12:05:00,59.5,14.7,30.01,SSW,205,1.0,4.0,17,0.00,,---,0.00,VWS V14.01,2013-02-18 19:05:00,
2013-02-18 12:10:00,59.1,14.4,30.00,NW,313,2.0,3.0,17,0.00,,---,0.00,VWS V14.01,2013-02-18 19:10:00,
2013-02-18 12:15:00,59.0,14.3,30.00,ESE,123,3.0,5.0,17,0.00,,---,0.00,VWS V14.01,2013-02-18 19:15:00,
2013-02-18 12:20:00,59.0,12.9,30.00,ESE,119,0.0,2.0,16,0.00,,---,0.00,VWS V14.01,2013-02-18 19:20:00,
2013-02-18 12:25:00,59.5,14.7,30.00,SE,133,0.0,3.0,17,0.00,,---,0.00,VWS V14.01,2013-02-18 19:25:00,
2013-02-18 12:30:00,60.3,13.9,29.99,NE,44,1.0,1.0,16,0.00,,---,0.00,VWS V14.01,2013-02-18 19:30:00,
2013-02-18 12:35:00,60.8,14.4,29.99,NE,46,0.0,1.0,16,0.00,,---,0.00,VWS V14.01,2013-02-18 19:35:00,
2013-02-18 12:40:00,61.2,14.7,29.99,SSW,205,1.0,5.0,16,0.00,,---,0.00,VWS V14.01,2013-02-18 19:40:00,
2013-02-18 12:45:00,60.9,14.4,29.98,East,84,0.0,2.0,16,0.00,,---,0.00,VWS V14.01,2013-02-18 19:45:00,
2013-02-18 12:50:00,61.1,13.1,29.98,SE,140,5.0,7.0,15,0.00,,---,0.00,VWS V14.01,2013-02-18 19:50:00,
2013-02-18 12:55:00,61.3,13.3,29.97,South,188,0.0,7.0,15,0.00,,---,0.00,VWS V14.01,2013-02-18 19:55:00,
2013-02-18 13:00:00,61.8,13.7,29.97,South,190,4.0,10.0,15,0.00,,---,0.00,VWS V14.01,2013-02-18 20:00:00,
2013-02-18 13:05:00,61.5,13.4,29.97,SSE,163,6.0,10.0,15,0.00,,---,0.00,VWS V14.01,2013-02-18 20:05:00,
2013-02-18 13:10:00,61.4,13.4,29.96,SSE,165,3.0,5.0,15,0.00,,---,0.00,VWS V14.01,2013-02-18 20:10:00,
2013-02-18 13:15:00,61.8,13.7,29.96,SW,215,7.0,7.0,15,0.00,,---,0.00,VWS V14.01,2013-02-18 20:15:00,
2013-02-18 13:20:00,61.7,13.6,29.96,SW,215,4.0,6.0,15,0.00,,---,0.00,VWS V14.01,2013-02-18 20:20:00,
2013-02-18 13:25:00,61.7,13.6,29.96,SE,130,4.0,13.0,15,0.00,,---,0.00,VWS V14.01,2013-02-18 20:25:00,
2013-02-18 13:26:00,61.5,13.4,29.96,SSE,153,0.0,6.0,15,0.00,,---,0.00,VWS V14.01,2013-02-18 20:26:00,
2013-02-18 13:30:00,61.3,13.3,29.96,South,178,5.0,6.0,15,0.00,,---,0.00,VWS V14.01,2013-02-18 20:30:00,
2013-02-18 13:31:00,61.5,13.4,29.95,South,184,2.0,7.0,15,0.00,,---,0.00,VWS V14.01,2013-02-18 20:31:00,
2013-02-18 13:35:00,61.9,15.2,29.96,South,171,4.0,9.0,16,0.00,,---,0.00,VWS V14.01,2013-02-18 20:35:00,
2013-02-18 13:36:00,61.6,13.5,29.95,South,173,0.0,10.0,15,0.00,,---,0.00,VWS V14.01,2013-02-18 20:36:00,
2013-02-18 13:40:00,61.5,14.9,29.95,South,177,1.0,10.0,16,0.00,,---,0.00,VWS V14.01,2013-02-18 20:40:00,
2013-02-18 13:41:00,61.6,13.5,29.95,SE,135,5.0,5.0,15,0.00,,---,0.00,VWS V14.01,2013-02-18 20:41:00,
2013-02-18 13:45:00,62.3,14.1,29.94,South,183,1.0,6.0,15,0.00,,---,0.00,VWS V14.01,2013-02-18 20:45:00,
2013-02-18 13:50:00,62.1,13.9,29.94,South,173,0.0,6.0,15,0.00,,---,0.00,VWS V14.01,2013-02-18 20:50:00,
2013-02-18 13:51:00,62.2,14.0,29.94,SSE,153,5.0,6.0,15,0.00,,---,0.00,VWS V14.01,2013-02-18 20:51:00,
2013-02-18 13:55:00,62.1,13.9,29.94,SSE,165,2.0,7.0,15,0.00,,---,0.00,VWS V14.01,2013-02-18 20:55:00,
2013-02-18 13:56:00,62.0,13.9,29.93,South,173,4.0,7.0,15,0.00,,---,0.00,VWS V14.01,2013-02-18 20:56:00,
2013-02-18 14:00:00,62.1,13.9,29.93,SSE,157,1.0,9.0,15,0.00,,---,0.00,VWS V14.01,2013-02-18 21:00:00,
2013-02-18 14:01:00,62.6,14.3,29.93,SSE,150,0.0,5.0,15,0.00,,---,0.00,VWS V14.01,2013-02-18 21:01:00,
2013-02-18 14:05:00,62.8,16.0,29.93,South,186,1.0,7.0,16,0.00,,---,0.00,VWS V14.01,2013-02-18 21:05:00,
2013-02-18 14:06:00,63.3,14.9,29.93,South,179,0.0,3.0,15,0.00,,---,0.00,VWS V14.01,2013-02-18 21:06:00,
2013-02-18 14:10:00,63.2,14.8,29.93,South,176,9.0,9.0,15,0.00,,---,0.00,VWS V14.01,2013-02-18 21:10:00,
2013-02-18 14:11:00,63.0,14.6,29.93,SW,220,1.0,11.0,15,0.00,,---,0.00,VWS V14.01,2013-02-18 21:11:00,
2013-02-18 14:15:00,63.0,14.6,29.93,South,184,2.0,11.0,15,0.00,,---,0.00,VWS V14.01,2013-02-18 21:15:00,
2013-02-18 14:16:00,62.8,14.5,29.93,South,173,5.0,6.0,15,0.00,,---,0.00,VWS V14.01,2013-02-18 21:16:00,
2013-02-18 14:20:00,62.7,14.4,29.93,SE,141,6.0,11.0,15,0.00,,---,0.00,VWS V14.01,2013-02-18 21:20:00,
2013-02-18 14:21:00,62.4,14.2,29.92,SE,128,4.0,9.0,15,0.00,,---,0.00,VWS V14.01,2013-02-18 21:21:00,
2013-02-18 14:25:00,62.4,14.2,29.92,SE,142,4.0,9.0,15,0.00,,---,0.00,VWS V14.01,2013-02-18 21:25:00,
2013-02-18 14:26:00,62.7,14.4,29.92,SSW,194,4.0,9.0,15,0.00,,---,0.00,VWS V14.01,2013-02-18 21:26:00,
2013-02-18 14:30:00,62.7,14.4,29.92,South,171,0.0,9.0,15,0.00,,---,0.00,VWS V14.01,2013-02-18 21:30:00,
2013-02-18 14:31:00,62.7,14.4,29.92,South,191,3.0,6.0,15,0.00,,---,0.00,VWS V14.01,2013-02-18 21:31:00,
2013-02-18 14:35:00,62.7,14.4,29.92,South,173,6.0,6.0,15,0.00,,---,0.00,VWS V14.01,2013-02-18 21:35:00,
2013-02-18 14:36:00,62.7,14.4,29.92,SSE,158,7.0,9.0,15,0.00,,---,0.00,VWS V14.01,2013-02-18 21:36:00,
2013-02-18 14:40:00,62.7,14.4,29.92,SSE,163,2.0,9.0,15,0.00,,---,0.00,VWS V14.01,2013-02-18 21:40:00,
2013-02-18 14:41:00,62.7,14.4,29.92,South,171,4.0,8.0,15,0.00,,---,0.00,VWS V14.01,2013-02-18 21:41:00,
2013-02-18 14:45:00,62.7,14.4,29.91,SSW,202,2.0,10.0,15,0.00,,---,0.00,VWS V14.01,2013-02-18 21:45:00,
2013-02-18 14:46:00,62.7,14.4,29.92,SSE,160,1.0,7.0,15,0.00,,---,0.00,VWS V14.01,2013-02-18 21:46:00,
2013-02-18 14:50:00,62.7,14.4,29.91,SE,127,4.0,7.0,15,0.00,,---,0.00,VWS V14.01,2013-02-18 21:50:00,
2013-02-18 14:51:00,62.6,14.3,29.91,SE,142,0.0,6.0,15,0.00,,---,0.00,VWS V14.01,2013-02-18 21:51:00,
2013-02-18 14:55:00,62.6,15.8,29.91,SSE,163,2.0,6.0,16,0.00,,---,0.00,VWS V14.01,2013-02-18 21:55:00,
2013-02-18 14:56:00,62.9,14.6,29.91,SSE,168,1.0,2.0,15,0.00,,---,0.00,VWS V14.01,2013-02-18 21:56:00,
2013-02-18 15:00:00,63.2,14.8,29.91,South,173,3.0,4.0,15,0.00,,---,0.00,VWS V14.01,2013-02-18 22:00:00,
2013-02-18 15:01:00,63.4,15.0,29.92,SSE,148,1.0,5.0,15,0.00,,---,0.00,VWS V14.01,2013-02-18 22:01:00,
2013-02-18 15:05:00,63.1,14.7,29.92,SE,132,4.0,5.0,15,0.00,,---,0.00,VWS V14.01,2013-02-18 22:05:00,
2013-02-18 15:06:00,62.9,14.6,29.92,ESE,120,3.0,7.0,15,0.00,,---,0.00,VWS V14.01,2013-02-18 22:06:00,
2013-02-18 15:10:00,62.9,14.6,29.92,SE,132,3.0,9.0,15,0.00,,---,0.00,VWS V14.01,2013-02-18 22:10:00,
2013-02-18 15:11:00,62.6,14.3,29.92,ESE,120,1.0,6.0,15,0.00,,---,0.00,VWS V14.01,2013-02-18 22:11:00,
2013-02-18 15:15:00,62.4,14.2,29.92,SE,130,1.0,6.0,15,0.00,,---,0.00,VWS V14.01,2013-02-18 22:15:00,
2013-02-18 15:16:00,62.2,14.0,29.91,SSE,153,5.0,10.0,15,0.00,,---,0.00,VWS V14.01,2013-02-18 22:16:00,
2013-02-18 15:20:00,62.3,14.1,29.91,SE,131,4.0,10.0,15,0.00,,---,0.00,VWS V14.01,2013-02-18 22:20:00,
2013-02-18 15:21:00,62.3,14.1,29.91,SE,129,4.0,9.0,15,0.00,,---,0.00,VWS V14.01,2013-02-18 22:21:00,
2013-02-18 15:25:00,62.3,14.1,29.91,SE,137,2.0,9.0,15,0.00,,---,0.00,VWS V14.01,2013-02-18 22:25:00,
2013-02-18 15:26:00,62.6,14.3,29.91,SSE,155,1.0,5.0,15,0.00,,---,0.00,VWS V14.01,2013-02-18 22:26:00,
2013-02-18 15:30:00,62.9,14.6,29.91,SSE,149,2.0,6.0,15,0.00,,---,0.00,VWS V14.01,2013-02-18 22:30:00,
2013-02-18 15:31:00,63.1,14.7,29.91,South,171,1.0,9.0,15,0.00,,---,0.00,VWS V14.01,2013-02-18 22:31:00,
2013-02-18 15:35:00,63.2,14.8,29.91,South,186,5.0,9.0,15,0.00,,---,0.00,VWS V14.01,2013-02-18 22:35:00,
2013-02-18 15:36:00,63.4,15.0,29.91,South,187,1.0,9.0,15,0.00,,---,0.00,VWS V14.01,2013-02-18 22:36:00,
2013-02-18 15:40:00,63.5,15.1,29.91,South,183,7.0,9.0,15,0.00,,---,0.00,VWS V14.01,2013-02-18 22:40:00,
2013-02-18 15:41:00,63.5,13.5,29.91,SSW,196,3.0,7.0,14,0.00,,---,0.00,VWS V14.01,2013-02-18 22:41:00,
2013-02-18 15:45:00,63.5,15.1,29.91,South,186,1.0,7.0,15,0.00,,---,0.00,VWS V14.01,2013-02-18 22:45:00,
2013-02-18 15:46:00,63.6,13.6,29.91,South,190,3.0,6.0,14,0.00,,---,0.00,VWS V14.01,2013-02-18 22:46:00,
2013-02-18 15:50:00,63.8,13.7,29.91,South,178,3.0,7.0,14,0.00,,---,0.00,VWS V14.01,2013-02-18 22:50:00,
2013-02-18 15:51:00,63.7,13.6,29.91,South,172,1.0,7.0,14,0.00,,---,0.00,VWS V14.01,2013-02-18 22:51:00,
2013-02-18 15:55:00,63.7,13.6,29.91,SSE,159,2.0,7.0,14,0.00,,---,0.00,VWS V14.01,2013-02-18 22:55:00,
2013-02-18 15:56:00,63.6,13.6,29.91,SSE,148,2.0,11.0,14,0.00,,---,0.00,VWS V14.01,2013-02-18 22:56:00,
2013-02-18 16:00:00,63.6,13.6,29.91,SSW,194,4.0,11.0,14,0.00,,---,0.00,VWS V14.01,2013-02-18 23:00:00,
2013-02-18 16:01:00,63.4,13.4,29.91,SSE,150,4.0,6.0,14,0.00,,---,0.00,VWS V14.01,2013-02-18 23:01:00,
2013-02-18 16:05:00,63.4,13.4,29.91,SE,141,3.0,6.0,14,0.00,,---,0.00,VWS V14.01,2013-02-18 23:05:00,
2013-02-18 16:07:00,63.4,13.4,29.91,SSE,159,1.0,4.0,14,0.00,,---,0.00,VWS V14.01,2013-02-18 23:07:00,
2013-02-18 16:10:00,63.4,13.4,29.91,SSE,168,3.0,4.0,14,0.00,,---,0.00,VWS V14.01,2013-02-18 23:10:00,
2013-02-18 16:12:00,63.4,13.4,29.91,SSE,163,7.0,9.0,14,0.00,,---,0.00,VWS V14.01,2013-02-18 23:12:00,
2013-02-18 16:15:00,63.4,13.4,29.91,South,190,7.0,9.0,14,0.00,,---,0.00,VWS V14.01,2013-02-18 23:15:00,
2013-02-18 16:17:00,63.2,13.2,29.91,SSW,192,3.0,10.0,14,0.00,,---,0.00,VWS V14.01,2013-02-18 23:17:00,
2013-02-18 16:20:00,63.1,13.2,29.91,South,191,2.0,10.0,14,0.00,,---,0.00,VWS V14.01,2013-02-18 23:20:00,
2013-02-18 16:22:00,63.1,13.2,29.91,SSW,209,0.0,5.0,14,0.00,,---,0.00,VWS V14.01,2013-02-18 23:22:00,
2013-02-18 16:25:00,63.2,13.2,29.91,SSW,209,0.0,5.0,14,0.00,,---,0.00,VWS V14.01,2013-02-18 23:25:00,
2013-02-18 16:27:00,63.3,13.3,29.91,SW,215,2.0,4.0,14,0.00,,---,0.00,VWS V14.01,2013-02-18 23:27:00,
2013-02-18 16:30:00,63.3,13.3,29.91,South,175,0.0,4.0,14,0.00,,---,0.00,VWS V14.01,2013-02-18 23:30:00,
2013-02-18 16:32:00,63.2,13.2,29.91,South,178,0.0,2.0,14,0.00,,---,0.00,VWS V14.01,2013-02-18 23:32:00,
2013-02-18 16:35:00,63.2,13.2,29.91,South,191,1.0,3.0,14,0.00,,---,0.00,VWS V14.01,2013-02-18 23:35:00,
2013-02-18 16:37:00,63.1,14.7,29.91,SSW,203,3.0,3.0,15,0.00,,---,0.00,VWS V14.01,2013-02-18 23:37:00,
2013-02-18 16:40:00,63.0,14.6,29.91,WSW,252,2.0,5.0,15,0.00,,---,0.00,VWS V14.01,2013-02-18 23:40:00,
2013-02-18 16:42:00,62.8,14.5,29.91,NW,325,2.0,4.0,15,0.00,,---,0.00,VWS V14.01,2013-02-18 23:42:00,
2013-02-18 16:45:00,62.7,14.4,29.91,NW,325,4.0,4.0,15,0.00,,---,0.00,VWS V14.01,2013-02-18 23:45:00,
2013-02-18 16:47:00,62.4,14.2,29.92,WNW,302,2.0,6.0,15,0.00,,---,0.00,VWS V14.01,2013-02-18 23:47:00,
2013-02-18 16:50:00,62.3,14.1,29.92,NW,319,1.0,6.0,15,0.00,,---,0.00,VWS V14.01,2013-02-18 23:50:00,
2013-02-18 16:52:00,62.1,15.4,29.92,WNW,303,4.0,5.0,16,0.00,,---,0.00,VWS V14.01,2013-02-18 23:52:00,
2013-02-18 16:55:00,62.0,15.3,29.92,WNW,291,4.0,6.0,16,0.00,,---,0.00,VWS V14.01,2013-02-18 23:55:00,
2013-02-18 16:57:00,61.6,15.0,29.92,WNW,288,7.0,10.0,16,0.00,,---,0.00,VWS V14.01,2013-02-18 23:57:00,
2013-02-18 17:00:00,61.5,14.9,29.92,WNW,295,9.0,10.0,16,0.00,,---,0.00,VWS V14.01,2013-02-19 00:00:00,
2013-02-18 17:02:00,61.2,14.7,29.92,WNW,299,9.0,10.0,16,0.00,,---,0.00,VWS V14.01,2013-02-19 00:02:00,
2013-02-18 17:05:00,61.1,14.6,29.92,WNW,303,6.0,10.0,16,0.00,,---,0.00,VWS V14.01,2013-02-19 00:05:00,
2013-02-18 17:07:00,60.8,14.4,29.91,WNW,302,2.0,6.0,16,0.00,,---,0.00,VWS V14.01,2013-02-19 00:07:00,
2013-02-18 17:10:00,60.7,14.3,29.91,NW,304,5.0,6.0,16,0.00,,---,0.00,VWS V14.01,2013-02-19 00:10:00,
2013-02-18 17:12:00,60.5,15.5,29.91,NW,315,2.0,5.0,17,0.00,,---,0.00,VWS V14.01,2013-02-19 00:12:00,
2013-02-18 17:15:00,60.5,15.5,29.91,NW,315,0.0,5.0,17,0.00,,---,0.00,VWS V14.01,2013-02-19 00:15:00,
2013-02-18 17:17:00,60.3,15.3,29.91,NW,316,2.0,3.0,17,0.00,,---,0.00,VWS V14.01,2013-02-19 00:17:00,
2013-02-18 17:20:00,60.2,15.2,29.91,NW,315,1.0,3.0,17,0.00,,---,0.00,VWS V14.01,2013-02-19 00:20:00,
2013-02-18 17:22:00,60.0,15.1,29.91,NW,316,0.0,2.0,17,0.00,,---,0.00,VWS V14.01,2013-02-19 00:22:00,
2013-02-18 17:25:00,59.9,15.0,29.91,NW,315,0.0,2.0,17,0.00,,---,0.00,VWS V14.01,2013-02-19 00:25:00,
2013-02-18 17:27:00,59.6,14.8,29.91,NW,315,0.0,0.0,17,0.00,,---,0.00,VWS V14.01,2013-02-19 00:27:00,
2013-02-18 17:30:00,59.5,14.7,29.91,NW,316,0.0,0.0,17,0.00,,---,0.00,VWS V14.01,2013-02-19 00:30:00,
2013-02-18 17:32:00,59.1,15.7,29.91,NW,315,0.0,0.0,18,0.00,,---,0.00,VWS V14.01,2013-02-19 00:32:00,
2013-02-18 17:35:00,59.0,15.6,29.91,NW,316,0.0,0.0,18,0.00,,---,0.00,VWS V14.01,2013-02-19 00:35:00,
2013-02-18 17:37:00,59.0,15.6,29.91,NW,315,1.0,2.0,18,0.00,,---,0.00,VWS V14.01,2013-02-19 00:37:00,
2013-02-18 17:40:00,58.8,15.4,29.91,NW,316,0.0,2.0,18,0.00,,---,0.00,VWS V14.01,2013-02-19 00:40:00,
2013-02-18 17:42:00,58.4,16.3,29.91,NW,315,0.0,1.0,19,0.00,,---,0.00,VWS V14.01,2013-02-19 00:42:00,
2013-02-18 17:45:00,58.3,16.2,29.91,NW,316,0.0,1.0,19,0.00,,---,0.00,VWS V14.01,2013-02-19 00:45:00,
2013-02-18 17:47:00,58.0,16.0,29.92,NW,316,2.0,2.0,19,0.00,,---,0.00,VWS V14.01,2013-02-19 00:47:00,
2013-02-18 17:50:00,57.9,15.9,29.91,NW,315,1.0,2.0,19,0.00,,---,0.00,VWS V14.01,2013-02-19 00:50:00,
2013-02-18 17:52:00,57.6,15.7,29.92,NW,315,2.0,2.0,19,0.00,,---,0.00,VWS V14.01,2013-02-19 00:52:00,
2013-02-18 17:55:00,57.6,15.7,29.91,NW,315,0.0,3.0,19,0.00,,---,0.00,VWS V14.01,2013-02-19 00:55:00,
2013-02-18 17:57:00,57.4,15.5,29.92,NW,315,1.0,3.0,19,0.00,,---,0.00,VWS V14.01,2013-02-19 00:57:00,
2013-02-18 18:00:00,57.3,15.4,29.92,NW,315,1.0,3.0,19,0.00,,---,0.00,VWS V14.01,2013-02-19 01:00:00,
2013-02-18 18:02:00,57.2,16.5,29.92,NW,315,1.0,2.0,20,0.00,,---,0.00,VWS V14.01,2013-02-19 01:02:00,
2013-02-18 18:05:00,57.1,16.4,29.92,NW,315,1.0,2.0,20,0.00,,---,0.00,VWS V14.01,2013-02-19 01:05:00,
2013-02-18 18:07:00,56.8,16.2,29.92,NW,315,0.0,2.0,20,0.00,,---,0.00,VWS V14.01,2013-02-19 01:07:00,
2013-02-18 18:10:00,56.7,16.1,29.92,NW,315,0.0,2.0,20,0.00,,---,0.00,VWS V14.01,2013-02-19 01:10:00,
2013-02-18 18:12:00,56.4,15.9,29.92,NW,315,0.0,0.0,20,0.00,,---,0.00,VWS V14.01,2013-02-19 01:12:00,
2013-02-18 18:15:00,56.4,15.9,29.92,NW,315,0.0,1.0,20,0.00,,---,0.00,VWS V14.01,2013-02-19 01:15:00,
2013-02-18 18:17:00,56.2,15.7,29.92,NW,315,0.0,0.0,20,0.00,,---,0.00,VWS V14.01,2013-02-19 01:17:00,
2013-02-18 18:20:00,56.0,15.5,29.92,NW,315,0.0,0.0,20,0.00,,---,0.00,VWS V14.01,2013-02-19 01:20:00,
2013-02-18 18:22:00,55.7,15.3,29.92,NW,315,0.0,0.0,20,0.00,,---,0.00,VWS V14.01,2013-02-19 01:22:00,
2013-02-18 18:25:00,55.6,15.2,29.92,NW,315,0.0,0.0,20,0.00,,---,0.00,VWS V14.01,2013-02-19 01:25:00,
2013-02-18 18:27:00,55.4,16.1,29.92,NW,315,0.0,0.0,21,0.00,,---,0.00,VWS V14.01,2013-02-19 01:27:00,
2013-02-18 18:30:00,55.3,16.0,29.92,NW,315,0.0,0.0,21,0.00,,---,0.00,VWS V14.01,2013-02-19 01:30:00,
2013-02-18 18:32:00,54.8,15.6,29.92,NW,315,0.0,0.0,21,0.00,,---,0.00,VWS V14.01,2013-02-19 01:32:00,
2013-02-18 18:35:00,54.6,15.5,29.92,NW,315,0.0,0.0,21,0.00,,---,0.00,VWS V14.01,2013-02-19 01:35:00,
2013-02-18 18:37:00,53.9,15.9,29.92,NW,316,0.0,0.0,22,0.00,,---,0.00,VWS V14.01,2013-02-19 01:37:00,
2013-02-18 18:40:00,53.7,15.8,29.92,NW,319,0.0,1.0,22,0.00,,---,0.00,VWS V14.01,2013-02-19 01:40:00,
2013-02-18 18:42:00,53.2,16.4,29.92,NNW,327,0.0,1.0,23,0.00,,---,0.00,VWS V14.01,2013-02-19 01:42:00,
2013-02-18 18:45:00,53.1,16.3,29.92,NW,326,0.0,1.0,23,0.00,,---,0.00,VWS V14.01,2013-02-19 01:45:00,
2013-02-18 18:47:00,52.6,16.9,29.92,NNW,327,0.0,0.0,24,0.00,,---,0.00,VWS V14.01,2013-02-19 01:47:00,
2013-02-18 18:50:00,52.4,16.7,29.92,NNW,328,0.0,0.0,24,0.00,,---,0.00,VWS V14.01,2013-02-19 01:50:00,
2013-02-18 18:52:00,51.9,16.3,29.92,NNW,328,0.0,0.0,24,0.00,,---,0.00,VWS V14.01,2013-02-19 01:52:00,
2013-02-18 18:55:00,51.8,16.2,29.92,NNW,329,0.0,0.0,24,0.00,,---,0.00,VWS V14.01,2013-02-19 01:55:00,
2013-02-18 18:57:00,51.3,16.7,29.92,NNW,329,0.0,0.0,25,0.00,,---,0.00,VWS V14.01,2013-02-19 01:57:00,
2013-02-18 19:00:00,51.1,16.5,29.92,NNW,329,0.0,0.0,25,0.00,,---,0.00,VWS V14.01,2013-02-19 02:00:00,
2013-02-18 19:02:00,50.5,16.9,29.92,NNW,331,0.0,0.0,26,0.00,,---,0.00,VWS V14.01,2013-02-19 02:02:00,
2013-02-18 19:05:00,50.2,17.5,29.92,NNW,331,0.0,0.0,27,0.00,,---,0.00,VWS V14.01,2013-02-19 02:05:00,
2013-02-18 19:07:00,49.3,16.8,29.92,NNW,331,0.0,0.0,27,0.00,,---,0.00,VWS V14.01,2013-02-19 02:07:00,
2013-02-18 19:10:00,49.2,16.7,29.92,NNW,332,0.0,0.0,27,0.00,,---,0.00,VWS V14.01,2013-02-19 02:10:00,
2013-02-18 19:12:00,49.3,15.0,29.92,North,355,0.0,1.0,25,0.00,,---,0.00,VWS V14.01,2013-02-19 02:12:00,
2013-02-18 19:15:00,49.6,15.2,29.92,North,355,0.0,1.0,25,0.00,,---,0.00,VWS V14.01,2013-02-19 02:15:00,
2013-02-18 19:17:00,50.1,15.7,29.93,North,355,0.0,0.0,25,0.00,,---,0.00,VWS V14.01,2013-02-19 02:17:00,
2013-02-18 19:20:00,50.0,15.6,29.93,North,355,0.0,0.0,25,0.00,,---,0.00,VWS V14.01,2013-02-19 02:20:00,
2013-02-18 19:22:00,48.6,16.1,29.93,NNE,29,0.0,0.0,27,0.00,,---,0.00,VWS V14.01,2013-02-19 02:22:00,
2013-02-18 19:25:00,48.1,15.7,29.93,NE,35,1.0,1.0,27,0.00,,---,0.00,VWS V14.01,2013-02-19 02:25:00,
2013-02-18 19:27:00,46.4,15.9,29.93,NE,36,0.0,2.0,29,0.00,,---,0.00,VWS V14.01,2013-02-19 02:27:00,
2013-02-18 19:30:00,46.1,15.6,29.93,NE,36,0.0,2.0,29,0.00,,---,0.00,VWS V14.01,2013-02-19 02:30:00,
2013-02-18 19:32:00,45.2,15.6,29.93,NE,36,0.0,0.0,30,0.00,,---,0.00,VWS V14.01,2013-02-19 02:32:00,
2013-02-18 19:35:00,45.0,15.4,29.93,NE,36,0.0,0.0,30,0.00,,---,0.00,VWS V14.01,2013-02-19 02:35:00,
2013-02-18 19:37:00,44.4,15.7,29.93,East,81,1.0,2.0,31,0.00,,---,0.00,VWS V14.01,2013-02-19 02:37:00,
2013-02-18 19:40:00,44.4,15.7,29.93,East,82,1.0,2.0,31,0.00,,---,0.00,VWS V14.01,2013-02-19 02:40:00,
2013-02-18 19:42:00,44.2,15.5,29.93,East,83,0.0,1.0,31,0.00,,---,0.00,VWS V14.01,2013-02-19 02:42:00,
2013-02-18 19:45:00,44.1,15.4,29.93,East,83,0.0,1.0,31,0.00,,---,0.00,VWS V14.01,2013-02-19 02:45:00,
2013-02-18 19:47:00,44.2,15.5,29.94,East,83,0.0,1.0,31,0.00,,---,0.00,VWS V14.01,2013-02-19 02:47:00,
2013-02-18 19:50:00,44.3,15.6,29.94,East,84,0.0,1.0,31,0.00,,---,0.00,VWS V14.01,2013-02-19 02:50:00,
2013-02-18 19:52:00,44.5,15.8,29.94,East,84,0.0,0.0,31,0.00,,---,0.00,VWS V14.01,2013-02-19 02:52:00,
2013-02-18 19:55:00,44.5,15.8,29.94,East,84,0.0,0.0,31,0.00,,---,0.00,VWS V14.01,2013-02-19 02:55:00,
2013-02-18 19:57:00,44.3,15.6,29.94,East,83,0.0,0.0,31,0.00,,---,0.00,VWS V14.01,2013-02-19 02:57:00,
2013-02-18 20:00:00,44.3,15.6,29.94,East,84,0.0,0.0,31,0.00,,---,0.00,VWS V14.01,2013-02-19 03:00:00,
2013-02-18 20:02:00,44.2,16.2,29.94,East,83,0.0,0.0,32,0.00,,---,0.00,VWS V14.01,2013-02-19 03:02:00,
2013-02-18 20:05:00,44.1,16.1,29.94,East,83,0.0,0.0,32,0.00,,---,0.00,VWS V14.01,2013-02-19 03:05:00,
2013-02-18 20:07:00,43.9,16.0,29.93,East,84,0.0,1.0,32,0.00,,---,0.00,VWS V14.01,2013-02-19 03:07:00,
2013-02-18 20:10:00,44.0,16.0,29.93,East,83,0.0,1.0,32,0.00,,---,0.00,VWS V14.01,2013-02-19 03:10:00,
2013-02-18 20:13:00,44.0,16.0,29.93,East,83,1.0,1.0,32,0.00,,---,0.00,VWS V14.01,2013-02-19 03:13:00,
2013-02-18 20:15:00,44.0,16.0,29.93,East,83,0.0,1.0,32,0.00,,---,0.00,VWS V14.01,2013-02-19 03:15:00,
2013-02-18 20:18:00,43.6,16.4,29.93,East,84,1.0,2.0,33,0.00,,---,0.00,VWS V14.01,2013-02-19 03:18:00,
2013-02-18 20:20:00,43.6,16.4,29.93,East,84,0.0,2.0,33,0.00,,---,0.00,VWS V14.01,2013-02-19 03:20:00,
2013-02-18 20:23:00,43.1,16.0,29.93,East,84,0.0,1.0,33,0.00,,---,0.00,VWS V14.01,2013-02-19 03:23:00,
2013-02-18 20:25:00,43.1,16.0,29.93,East,84,0.0,1.0,33,0.00,,---,0.00,VWS V14.01,2013-02-19 03:25:00,
2013-02-18 20:28:00,42.6,16.2,29.93,East,84,0.0,0.0,34,0.00,,---,0.00,VWS V14.01,2013-02-19 03:28:00,
2013-02-18 20:30:00,42.6,16.2,29.93,East,84,0.0,0.0,34,0.00,,---,0.00,VWS V14.01,2013-02-19 03:30:00,
2013-02-18 20:33:00,42.1,15.8,29.93,East,88,0.0,2.0,34,0.00,,---,0.00,VWS V14.01,2013-02-19 03:33:00,
2013-02-18 20:35:00,42.1,15.8,29.93,East,88,0.0,2.0,34,0.00,,---,0.00,VWS V14.01,2013-02-19 03:35:00,
2013-02-18 20:38:00,42.0,15.7,29.93,East,92,1.0,2.0,34,0.00,,---,0.00,VWS V14.01,2013-02-19 03:38:00,
2013-02-18 20:40:00,42.0,15.7,29.93,East,91,1.0,2.0,34,0.00,,---,0.00,VWS V14.01,2013-02-19 03:40:00,
2013-02-18 20:43:00,42.0,16.4,29.93,East,91,0.0,2.0,35,0.00,,---,0.00,VWS V14.01,2013-02-19 03:43:00,
2013-02-18 20:45:00,42.0,16.4,29.93,East,91,0.0,2.0,35,0.00,,---,0.00,VWS V14.01,2013-02-19 03:45:00,
2013-02-18 20:48:00,41.7,16.1,29.93,East,91,0.0,1.0,35,0.00,,---,0.00,VWS V14.01,2013-02-19 03:48:00,
2013-02-18 20:50:00,41.7,16.1,29.93,East,91,1.0,1.0,35,0.00,,---,0.00,VWS V14.01,2013-02-19 03:50:00,
2013-02-18 20:53:00,41.4,16.5,29.93,East,88,0.0,3.0,36,0.00,,---,0.00,VWS V14.01,2013-02-19 03:53:00,
2013-02-18 20:55:00,41.4,16.5,29.93,East,88,0.0,3.0,36,0.00,,---,0.00,VWS V14.01,2013-02-19 03:55:00,
2013-02-18 20:58:00,41.1,16.2,29.93,East,88,1.0,2.0,36,0.00,,---,0.00,VWS V14.01,2013-02-19 03:58:00,
2013-02-18 21:00:00,41.1,16.2,29.93,East,88,0.0,2.0,36,0.00,,---,0.00,VWS V14.01,2013-02-19 04:00:00,
2013-02-18 21:03:00,40.9,16.0,29.94,East,88,0.0,2.0,36,0.00,,---,0.00,VWS V14.01,2013-02-19 04:03:00,
2013-02-18 21:05:00,40.8,15.9,29.94,East,88,0.0,2.0,36,0.00,,---,0.00,VWS V14.01,2013-02-19 04:05:00,
2013-02-18 21:08:00,40.6,15.8,29.94,East,88,0.0,1.0,36,0.00,,---,0.00,VWS V14.01,2013-02-19 04:08:00,
2013-02-18 21:10:00,40.6,15.8,29.94,East,88,1.0,1.0,36,0.00,,---,0.00,VWS V14.01,2013-02-19 04:10:00,
2013-02-18 21:13:00,40.5,16.3,29.95,East,88,0.0,2.0,37,0.00,,---,0.00,VWS V14.01,2013-02-19 04:13:00,
2013-02-18 21:15:00,40.5,16.3,29.95,East,88,0.0,2.0,37,0.00,,---,0.00,VWS V14.01,2013-02-19 04:15:00,
2013-02-18 21:18:00,40.3,16.1,29.94,East,88,0.0,1.0,37,0.00,,---,0.00,VWS V14.01,2013-02-19 04:18:00,
2013-02-18 21:20:00,40.3,16.1,29.94,East,88,0.0,1.0,37,0.00,,---,0.00,VWS V14.01,2013-02-19 04:20:00,
2013-02-18 21:23:00,40.3,16.1,29.94,East,88,1.0,1.0,37,0.00,,---,0.00,VWS V14.01,2013-02-19 04:23:00,
2013-02-18 21:25:00,40.2,16.0,29.94,East,88,1.0,1.0,37,0.00,,---,0.00,VWS V14.01,2013-02-19 04:25:00,
2013-02-18 21:28:00,40.3,16.1,29.94,East,85,2.0,3.0,37,0.00,,---,0.00,VWS V14.01,2013-02-19 04:28:00,
2013-02-18 21:30:00,40.3,16.1,29.94,East,84,1.0,3.0,37,0.00,,---,0.00,VWS V14.01,2013-02-19 04:30:00,
2013-02-18 21:33:00,40.3,16.1,29.95,East,84,0.0,2.0,37,0.00,,---,0.00,VWS V14.01,2013-02-19 04:33:00,
2013-02-18 21:35:00,40.3,16.1,29.95,East,84,0.0,2.0,37,0.00,,---,0.00,VWS V14.01,2013-02-19 04:35:00,
2013-02-18 21:38:00,40.2,16.0,29.94,East,84,0.0,0.0,37,0.00,,---,0.00,VWS V14.01,2013-02-19 04:38:00,
2013-02-18 21:40:00,40.2,16.0,29.94,East,84,0.0,0.0,37,0.00,,---,0.00,VWS V14.01,2013-02-19 04:40:00,
2013-02-18 21:43:00,40.3,16.7,29.94,East,84,0.0,1.0,38,0.00,,---,0.00,VWS V14.01,2013-02-19 04:43:00,
2013-02-18 21:45:00,40.2,16.6,29.94,East,84,0.0,1.0,38,0.00,,---,0.00,VWS V14.01,2013-02-19 04:45:00,
2013-02-18 21:48:00,40.3,16.1,29.95,East,87,2.0,3.0,37,0.00,,---,0.00,VWS V14.01,2013-02-19 04:48:00,
2013-02-18 21:50:00,40.3,16.1,29.95,East,87,1.0,3.0,37,0.00,,---,0.00,VWS V14.01,2013-02-19 04:50:00,
2013-02-18 21:53:00,40.5,16.3,29.94,East,89,1.0,3.0,37,0.00,,---,0.00,VWS V14.01,2013-02-19 04:53:00,
2013-02-18 21:55:00,40.5,16.3,29.94,East,89,1.0,3.0,37,0.00,,---,0.00,VWS V14.01,2013-02-19 04:55:00,
2013-02-18 21:58:00,40.5,16.3,29.94,East,89,0.0,3.0,37,0.00,,---,0.00,VWS V14.01,2013-02-19 04:58:00,
2013-02-18 22:00:00,40.5,16.3,29.94,East,88,3.0,3.0,37,0.00,,---,0.00,VWS V14.01,2013-02-19 05:00:00,
2013-02-18 22:01:00,40.6,16.4,29.94,East,88,1.0,3.0,37,0.00,,---,0.00,VWS V14.01,2013-02-19 05:01:00,
2013-02-18 22:05:00,40.6,16.4,29.94,East,88,0.0,3.0,37,0.00,,---,0.00,VWS V14.01,2013-02-19 05:05:00,
2013-02-18 22:06:00,40.7,15.8,29.94,East,88,0.0,2.0,36,0.00,,---,0.00,VWS V14.01,2013-02-19 05:06:00,
2013-02-18 22:10:00,40.8,15.9,29.94,East,89,0.0,2.0,36,0.00,,---,0.00,VWS V14.01,2013-02-19 05:10:00,
2013-02-18 22:11:00,40.9,16.0,29.94,East,89,0.0,2.0,36,0.00,,---,0.00,VWS V14.01,2013-02-19 05:11:00,
2013-02-18 22:15:00,40.9,16.0,29.94,East,89,0.0,2.0,36,0.00,,---,0.00,VWS V14.01,2013-02-19 05:15:00,
2013-02-18 22:16:00,40.8,15.9,29.95,East,89,1.0,2.0,36,0.00,,---,0.00,VWS V14.01,2013-02-19 05:16:00,
2013-02-18 22:20:00,40.7,15.8,29.95,East,89,0.0,2.0,36,0.00,,---,0.00,VWS V14.01,2013-02-19 05:20:00,
2013-02-18 22:21:00,40.6,15.8,29.95,East,89,0.0,2.0,36,0.00,,---,0.00,VWS V14.01,2013-02-19 05:21:00,
2013-02-18 22:25:00,40.5,15.7,29.95,East,88,0.0,2.0,36,0.00,,---,0.00,VWS V14.01,2013-02-19 05:25:00,
2013-02-18 22:26:00,40.5,15.7,29.95,East,89,0.0,0.0,36,0.00,,---,0.00,VWS V14.01,2013-02-19 05:26:00,
2013-02-18 22:30:00,40.4,15.6,29.95,East,89,0.0,0.0,36,0.00,,---,0.00,VWS V14.01,2013-02-19 05:30:00,
2013-02-18 22:31:00,40.3,15.5,29.95,East,88,0.0,1.0,36,0.00,,---,0.00,VWS V14.01,2013-02-19 05:31:00,
2013-02-18 22:35:00,40.2,16.0,29.95,East,88,0.0,1.0,37,0.00,,---,0.00,VWS V14.01,2013-02-19 05:35:00,
2013-02-18 22:36:00,40.0,15.9,29.95,East,89,0.0,0.0,37,0.00,,---,0.00,VWS V14.01,2013-02-19 05:36:00,
2013-02-18 22:40:00,40.0,15.9,29.95,East,89,0.0,0.0,37,0.00,,---,0.00,VWS V14.01,2013-02-19 05:40:00,
2013-02-18 22:41:00,40.0,15.2,29.95,East,88,0.0,0.0,36,0.00,,---,0.00,VWS V14.01,2013-02-19 05:41:00,
2013-02-18 22:45:00,40.0,15.2,29.95,East,91,0.0,1.0,36,0.00,,---,0.00,VWS V14.01,2013-02-19 05:45:00,
2013-02-18 22:46:00,40.3,14.8,29.95,East,91,0.0,0.0,35,0.00,,---,0.00,VWS V14.01,2013-02-19 05:46:00,
2013-02-18 22:50:00,40.7,15.2,29.95,East,91,0.0,0.0,35,0.00,,---,0.00,VWS V14.01,2013-02-19 05:50:00,
2013-02-18 22:51:00,40.8,15.3,29.95,East,91,0.0,0.0,35,0.00,,---,0.00,VWS V14.01,2013-02-19 05:51:00,
2013-02-18 22:55:00,40.8,15.3,29.95,East,91,0.0,0.0,35,0.00,,---,0.00,VWS V14.01,2013-02-19 05:55:00,
2013-02-18 22:56:00,40.7,15.2,29.95,East,91,0.0,0.0,35,0.00,,---,0.00,VWS V14.01,2013-02-19 05:56:00,
2013-02-18 23:00:00,40.6,15.1,29.95,East,91,0.0,0.0,35,0.00,,---,0.00,VWS V14.01,2013-02-19 06:00:00,
2013-02-18 23:01:00,40.4,14.9,29.95,East,91,0.0,0.0,35,0.00,,---,0.00,VWS V14.01,2013-02-19 06:01:00,
2013-02-18 23:05:00,40.4,14.9,29.95,East,91,0.0,0.0,35,0.00,,---,0.00,VWS V14.01,2013-02-19 06:05:00,
2013-02-18 23:06:00,40.6,15.1,29.95,East,91,0.0,0.0,35,0.00,,---,0.00,VWS V14.01,2013-02-19 06:06:00,
2013-02-18 23:10:00,40.8,15.3,29.95,East,91,0.0,1.0,35,0.00,,---,0.00,VWS V14.01,2013-02-19 06:10:00,
2013-02-18 23:11:00,41.1,14.9,29.94,East,91,0.0,0.0,34,0.00,,---,0.00,VWS V14.01,2013-02-19 06:11:00,
2013-02-18 23:15:00,41.3,15.1,29.94,East,91,0.0,1.0,34,0.00,,---,0.00,VWS V14.01,2013-02-19 06:15:00,
2013-02-18 23:16:00,41.6,15.3,29.94,East,91,0.0,0.0,34,0.00,,---,0.00,VWS V14.01,2013-02-19 06:16:00,
2013-02-18 23:20:00,41.8,14.8,29.94,East,95,0.0,1.0,33,0.00,,---,0.00,VWS V14.01,2013-02-19 06:20:00,
2013-02-18 23:21:00,41.9,14.9,29.94,East,95,0.0,0.0,33,0.00,,---,0.00,VWS V14.01,2013-02-19 06:21:00,
2013-02-18 23:25:00,41.8,14.8,29.94,East,95,0.0,0.0,33,0.00,,---,0.00,VWS V14.01,2013-02-19 06:25:00,
2013-02-18 23:26:00,41.6,14.6,29.94,East,95,0.0,0.0,33,0.00,,---,0.00,VWS V14.01,2013-02-19 06:26:00,
2013-02-18 23:30:00,41.6,14.6,29.94,East,95,0.0,0.0,33,0.00,,---,0.00,VWS V14.01,2013-02-19 06:30:00,
2013-02-18 23:31:00,41.6,14.6,29.94,East,95,0.0,0.0,33,0.00,,---,0.00,VWS V14.01,2013-02-19 06:31:00,
2013-02-18 23:35:00,41.5,14.6,29.94,East,95,0.0,0.0,33,0.00,,---,0.00,VWS V14.01,2013-02-19 06:35:00,
2013-02-18 23:36:00,41.4,15.1,29.94,East,95,0.0,0.0,34,0.00,,---,0.00,VWS V14.01,2013-02-19 06:36:00,
2013-02-18 23:40:00,41.1,14.9,29.94,East,94,1.0,1.0,34,0.00,,---,0.00,VWS V14.01,2013-02-19 06:40:00,
2013-02-18 23:41:00,40.6,15.1,29.94,East,94,0.0,1.0,35,0.00,,---,0.00,VWS V14.01,2013-02-19 06:41:00,
2013-02-18 23:45:00,40.5,15.0,29.94,East,94,0.0,2.0,35,0.00,,---,0.00,VWS V14.01,2013-02-19 06:45:00,
2013-02-18 23:46:00,40.6,14.4,29.94,East,94,0.0,0.0,34,0.00,,---,0.00,VWS V14.01,2013-02-19 06:46:00,
2013-02-18 23:50:00,40.8,14.6,29.94,East,94,0.0,0.0,34,0.00,,---,0.00,VWS V14.01,2013-02-19 06:50:00,
2013-02-18 23:51:00,41.1,14.9,29.94,East,98,1.0,2.0,34,0.00,,---,0.00,VWS V14.01,2013-02-19 06:51:00,
2013-02-18 23:55:00,41.9,14.2,29.94,ESE,109,2.0,4.0,32,0.00,,---,0.00,VWS V14.01,2013-02-19 06:55:00,
2013-02-18 23:56:00,42.9,14.4,29.94,ESE,117,2.0,4.0,31,0.00,,---,0.00,VWS V14.01,2013-02-19 06:56:00,